createdAt,value
2018-10-11T00:02:04.565Z,47.91
2018-10-11T00:04:36.818Z,48.77
2018-10-11T00:07:09.282Z,48.10
2018-10-11T00:09:41.290Z,47.99
2018-10-11T00:12:13.112Z,48.45
2018-10-11T00:14:45.017Z,49.03
2018-10-11T00:17:18.111Z,49.90
2018-10-11T00:19:49.928Z,49.88
2018-10-11T00:22:22.521Z,48.66
2018-10-11T00:24:54.421Z,49.74
2018-10-11T00:27:27.454Z,49.12
2018-10-11T00:29:59.762Z,48.27
2018-10-11T00:32:32.123Z,49.86
2018-10-11T00:35:04.814Z,49.12
2018-10-11T00:37:37.203Z,49.61
2018-10-11T00:40:10.948Z,50.78
2018-10-11T00:42:42.965Z,50.17
2018-10-11T00:45:16.351Z,49.54
2018-10-11T00:47:48.291Z,49.98
2018-10-11T00:50:20.355Z,49.62
2018-10-11T00:52:52.788Z,49.71
2018-10-11T00:55:25.293Z,48.96
2018-10-11T00:57:57.759Z,48.84
2018-10-11T01:00:29.697Z,49.67
2018-10-11T01:03:01.987Z,50.17
2018-10-11T01:05:33.849Z,49.42
2018-10-11T01:08:06.414Z,49.15
2018-10-11T01:10:38.413Z,49.72
2018-10-11T01:13:10.873Z,49.79
2018-10-11T01:15:43.392Z,50.20
2018-10-11T01:18:15.985Z,50.61
2018-10-11T01:20:47.960Z,50.04
2018-10-11T01:23:19.954Z,49.28
2018-10-11T01:25:51.872Z,50.56
2018-10-11T01:28:23.991Z,58.86
2018-10-11T01:31:00.301Z,60.34
2018-10-11T01:33:32.224Z,60.34
2018-10-11T01:36:04.822Z,60.29
2018-10-11T01:38:36.741Z,60.99
2018-10-11T01:41:09.170Z,61.43
2018-10-11T01:43:41.365Z,61.75
2018-10-11T01:46:14.670Z,60.26
2018-10-11T01:48:47.232Z,60.92
2018-10-11T01:51:19.005Z,62.19
2018-10-11T01:53:51.037Z,61.04
2018-10-11T01:56:23.403Z,61.75
2018-10-11T01:58:55.762Z,60.83
2018-10-11T02:01:28.642Z,59.61
2018-10-11T02:04:00.607Z,60.15
2018-10-11T02:06:33.900Z,60.07
2018-10-11T02:09:06.234Z,60.00
2018-10-11T02:11:38.934Z,60.46
2018-10-11T02:14:11.132Z,60.55
2018-10-11T02:16:43.106Z,59.80
2018-10-11T02:19:15.132Z,60.40
2018-10-11T02:21:47.313Z,61.46
2018-10-11T02:24:18.931Z,60.68
2018-10-11T02:26:50.902Z,59.83
2018-10-11T02:29:23.152Z,60.96
2018-10-11T02:31:55.119Z,60.86
2018-10-11T02:34:27.082Z,60.48
2018-10-11T02:36:59.661Z,60.38
2018-10-11T02:39:32.731Z,60.73
2018-10-11T02:42:04.936Z,61.35
2018-10-11T02:44:37.410Z,59.44
2018-10-11T02:47:09.449Z,58.51
2018-10-11T02:49:41.390Z,59.85
2018-10-11T02:52:13.521Z,60.45
2018-10-11T02:54:45.552Z,58.98
2018-10-11T02:57:26.628Z,59.05
2018-10-11T02:59:59.346Z,59.32
2018-10-11T03:02:31.913Z,58.66
2018-10-11T03:05:04.446Z,58.98
2018-10-11T03:07:36.773Z,58.51
2018-10-11T03:10:09.050Z,58.86
2018-10-11T03:12:40.658Z,58.40
2018-10-11T03:15:12.836Z,56.49
2018-10-11T03:17:44.568Z,55.65
2018-10-11T03:20:16.669Z,54.34
2018-10-11T03:22:48.770Z,57.54
2018-10-11T03:25:21.078Z,59.67
2018-10-11T03:30:38.935Z,57.29
2018-10-11T03:33:16.867Z,57.44
2018-10-11T03:35:53.647Z,57.00
2018-10-11T03:38:28.272Z,56.37
2018-10-11T03:41:09.900Z,57.51
2018-10-11T03:43:41.864Z,57.64
2018-10-11T03:46:13.187Z,56.30
2018-10-11T03:48:44.860Z,56.69
2018-10-11T03:51:16.587Z,56.84
2018-10-11T03:53:48.458Z,56.51
2018-10-11T03:56:20.257Z,54.57
2018-10-11T03:58:52.409Z,54.79
2018-10-11T04:01:25.231Z,54.79
2018-10-11T04:03:57.865Z,52.46
2018-10-11T04:06:29.647Z,53.93
2018-10-11T04:09:01.125Z,53.93
2018-10-11T04:11:32.983Z,54.26
2018-10-11T04:14:11.120Z,55.59
2018-10-11T04:16:42.984Z,55.17
2018-10-11T04:19:15.120Z,54.98
2018-10-11T04:21:47.129Z,56.65
2018-10-11T04:24:19.035Z,56.35
2018-10-11T04:26:51.376Z,53.21
2018-10-11T04:29:24.563Z,53.03
2018-10-11T04:31:57.398Z,53.13
2018-10-11T04:34:29.517Z,53.19
2018-10-11T04:37:01.424Z,54.08
2018-10-11T04:39:33.243Z,53.50
2018-10-11T04:42:04.897Z,53.78
2018-10-11T04:44:37.551Z,52.51
2018-10-11T04:47:09.403Z,52.74
2018-10-11T04:49:41.253Z,51.44
2018-10-11T04:52:12.973Z,52.52
2018-10-11T04:54:44.829Z,52.57
2018-10-11T04:57:16.866Z,53.58
2018-10-11T04:59:49.039Z,52.32
2018-10-11T05:02:20.780Z,53.89
2018-10-11T05:04:52.592Z,53.99
2018-10-11T05:07:24.749Z,55.58
2018-10-11T05:09:56.767Z,55.22
2018-10-11T05:12:29.179Z,52.89
2018-10-11T05:15:01.388Z,53.56
2018-10-11T05:17:33.483Z,53.22
2018-10-11T05:20:05.401Z,52.95
2018-10-11T05:22:37.502Z,53.46
2018-10-11T05:25:09.403Z,53.14
2018-10-11T05:27:42.579Z,52.87
2018-10-11T05:30:14.645Z,55.95
2018-10-11T05:32:47.661Z,53.39
2018-10-11T05:35:19.549Z,53.75
2018-10-11T05:37:51.528Z,53.53
2018-10-11T05:40:23.630Z,53.53
2018-10-11T05:42:55.660Z,53.53
2018-10-11T05:45:28.232Z,53.46
2018-10-11T05:48:00.488Z,52.89
2018-10-11T05:50:32.411Z,52.89
2018-10-11T05:53:04.800Z,52.89
2018-10-11T05:55:36.931Z,52.89
2018-10-11T05:58:09.642Z,52.89
2018-10-11T06:00:41.841Z,52.89
2018-10-11T06:03:14.078Z,52.89
2018-10-11T06:05:46.153Z,52.89
2018-10-11T06:08:18.540Z,52.89
2018-10-11T06:10:51.370Z,52.89
2018-10-11T06:13:23.844Z,49.73
2018-10-11T06:15:56.150Z,49.73
2018-10-11T06:18:31.980Z,49.73
2018-10-11T06:21:04.123Z,47.74
2018-10-11T06:23:36.645Z,47.74
2018-10-11T06:26:08.685Z,48.95
2018-10-11T06:28:41.375Z,48.95
2018-10-11T06:31:14.041Z,47.19
2018-10-11T06:33:46.956Z,47.19
2018-10-11T06:36:21.556Z,47.19
2018-10-11T06:38:54.196Z,47.19
2018-10-11T06:41:26.465Z,47.53
2018-10-11T06:43:58.629Z,47.53
2018-10-11T06:46:30.986Z,47.39
2018-10-11T06:49:03.330Z,47.39
2018-10-11T06:51:35.633Z,47.39
2018-10-11T06:54:07.952Z,47.39
2018-10-11T06:56:39.887Z,47.39
2018-10-11T06:59:11.523Z,47.39
2018-10-11T07:01:43.326Z,47.39
2018-10-11T07:04:15.476Z,47.39
2018-10-11T07:06:47.513Z,48.61
2018-10-11T07:09:19.390Z,48.38
2018-10-11T07:11:51.489Z,48.38
2018-10-11T07:14:23.705Z,48.38
2018-10-11T07:16:56.628Z,48.38
2018-10-11T07:19:28.265Z,46.96
2018-10-11T07:22:01.559Z,46.96
2018-10-11T07:24:33.446Z,46.30
2018-10-11T07:27:05.280Z,47.38
2018-10-11T07:29:37.766Z,47.38
2018-10-11T07:32:09.936Z,47.38
2018-10-11T07:34:45.969Z,47.42
2018-10-11T07:37:17.769Z,46.28
2018-10-11T07:39:49.996Z,46.28
2018-10-11T07:42:21.831Z,47.57
2018-10-11T07:44:53.802Z,46.05
2018-10-11T07:47:25.965Z,46.76
2018-10-11T07:49:58.287Z,46.26
2018-10-11T07:52:30.183Z,46.43
2018-10-11T07:55:02.213Z,49.39
2018-10-11T07:57:40.257Z,49.39
2018-10-11T08:00:13.791Z,49.39
2018-10-11T08:02:46.183Z,48.49
2018-10-11T08:05:18.124Z,46.64
2018-10-11T08:07:50.252Z,47.41
2018-10-11T08:10:22.315Z,47.25
2018-10-11T08:12:55.123Z,45.95
2018-10-11T08:15:26.861Z,44.64
2018-10-11T08:17:59.577Z,46.01
2018-10-11T08:20:31.209Z,47.32
2018-10-11T08:23:03.469Z,45.03
2018-10-11T08:25:46.191Z,45.03
2018-10-11T08:28:18.186Z,45.78
2018-10-11T08:30:50.131Z,45.32
2018-10-11T08:33:22.320Z,45.20
2018-10-11T08:35:54.459Z,45.10
2018-10-11T08:38:26.303Z,44.14
2018-10-11T08:40:58.615Z,46.08
2018-10-11T08:43:31.094Z,46.23
2018-10-11T08:46:03.300Z,46.09
2018-10-11T08:48:35.321Z,46.40
2018-10-11T08:51:07.350Z,44.89
2018-10-11T08:53:39.115Z,46.48
2018-10-11T08:56:11.092Z,45.98
2018-10-11T08:58:42.824Z,46.29
2018-10-11T09:01:14.937Z,45.83
2018-10-11T09:03:47.534Z,45.96
2018-10-11T09:06:19.091Z,47.30
2018-10-11T09:08:50.779Z,46.79
2018-10-11T09:11:22.223Z,47.36
2018-10-11T09:13:54.277Z,46.91
2018-10-11T09:16:26.203Z,47.23
2018-10-11T09:18:58.822Z,47.50
2018-10-11T09:21:30.803Z,47.25
2018-10-11T09:24:02.971Z,46.74
2018-10-11T09:26:34.706Z,46.98
2018-10-11T09:29:06.312Z,46.51
2018-10-11T09:31:38.029Z,46.73
2018-10-11T09:34:09.537Z,46.60
2018-10-11T09:36:42.203Z,46.73
2018-10-11T09:39:14.041Z,46.58
2018-10-11T09:41:46.170Z,46.52
2018-10-11T09:44:17.896Z,47.12
2018-10-11T09:46:49.573Z,47.03
2018-10-11T09:49:21.441Z,47.03
2018-10-11T09:51:53.099Z,46.14
2018-10-11T09:54:24.760Z,47.08
2018-10-11T09:57:31.253Z,47.27
2018-10-11T10:00:06.110Z,46.75
2018-10-11T10:02:37.408Z,47.02
2018-10-11T10:05:08.635Z,46.74
2018-10-11T10:07:40.218Z,46.88
2018-10-11T10:10:12.318Z,46.88
2018-10-11T10:12:44.319Z,45.72
2018-10-11T10:15:16.129Z,46.92
2018-10-11T10:17:48.044Z,46.68
2018-10-11T10:20:19.998Z,46.17
2018-10-11T10:22:52.510Z,46.16
2018-10-11T10:25:24.720Z,46.92
2018-10-11T10:27:56.430Z,47.51
2018-10-11T10:30:33.218Z,47.23
2018-10-11T10:33:05.657Z,46.75
2018-10-11T10:35:37.457Z,47.62
2018-10-11T10:38:09.219Z,47.51
2018-10-11T10:40:40.611Z,46.60
2018-10-11T10:43:13.140Z,47.33
2018-10-11T10:45:46.278Z,47.43
2018-10-11T10:48:19.716Z,47.43
2018-10-11T10:50:51.122Z,47.39
2018-10-11T10:53:23.384Z,47.66
2018-10-11T10:55:55.305Z,47.76
2018-10-11T10:58:29.483Z,46.75
2018-10-11T11:01:01.567Z,47.65
2018-10-11T11:03:33.364Z,47.44
2018-10-11T11:06:05.976Z,46.57
2018-10-11T11:08:38.229Z,46.65
2018-10-11T11:11:10.135Z,47.00
2018-10-11T11:13:42.001Z,47.56
2018-10-11T11:16:14.275Z,47.31
2018-10-11T11:18:46.761Z,47.59
2018-10-11T11:21:18.578Z,47.53
2018-10-11T11:23:52.449Z,47.65
2018-10-11T11:26:24.464Z,47.66
2018-10-11T11:28:56.115Z,47.88
2018-10-11T11:31:28.206Z,47.48
2018-10-11T11:34:00.621Z,47.93
2018-10-11T11:36:32.170Z,47.63
2018-10-11T11:39:05.461Z,46.82
2018-10-11T11:41:37.329Z,47.15
2018-10-11T11:44:09.609Z,47.30
2018-10-11T11:46:42.302Z,46.30
2018-10-11T11:49:14.113Z,49.02
2018-10-11T11:51:46.091Z,48.86
2018-10-11T11:54:20.568Z,49.66
2018-10-11T11:56:53.041Z,49.45
2018-10-11T11:59:24.937Z,47.43
2018-10-11T12:01:57.019Z,50.46
2018-10-11T12:04:28.868Z,49.76
2018-10-11T12:07:00.604Z,49.46
2018-10-11T12:09:32.467Z,50.05
2018-10-11T12:12:05.788Z,50.66
2018-10-11T12:16:02.803Z,50.63
2018-10-11T12:18:35.699Z,51.79
2018-10-11T12:21:07.921Z,50.19
2018-10-11T12:23:43.450Z,53.43
2018-10-11T12:26:15.263Z,52.16
2018-10-11T12:28:46.990Z,53.04
2018-10-11T12:31:18.663Z,53.32
2018-10-11T12:33:51.282Z,53.98
2018-10-11T12:36:23.564Z,53.32
2018-10-11T12:38:56.033Z,52.65
2018-10-11T12:41:27.698Z,53.73
2018-10-11T12:43:59.659Z,54.04
2018-10-11T12:46:32.953Z,52.46
2018-10-11T12:49:04.053Z,54.18
2018-10-11T12:51:35.863Z,54.51
2018-10-11T12:54:07.878Z,54.38
2018-10-11T12:56:39.654Z,55.77
2018-10-11T12:59:11.509Z,55.44
2018-10-11T13:01:43.356Z,54.29
2018-10-11T13:04:15.161Z,53.89
2018-10-11T13:06:46.869Z,51.98
2018-10-11T13:09:18.509Z,56.52
2018-10-11T13:11:50.177Z,52.79
2018-10-11T13:14:21.837Z,55.08
2018-10-11T13:16:54.115Z,55.11
2018-10-11T13:19:25.631Z,55.04
2018-10-11T13:21:57.620Z,55.50
2018-10-11T13:24:29.042Z,54.75
2018-10-11T13:27:02.329Z,54.75
2018-10-11T13:29:34.189Z,54.93
2018-10-11T13:32:06.267Z,50.76
2018-10-11T13:34:37.894Z,52.91
2018-10-11T13:37:10.117Z,52.82
2018-10-11T13:39:48.576Z,52.01
2018-10-11T13:42:13.642Z,50.84
2018-10-11T13:44:45.387Z,51.65
2018-10-11T13:47:17.419Z,51.80
2018-10-11T13:49:49.753Z,52.64
2018-10-11T13:52:22.513Z,52.64
2018-10-11T13:54:53.571Z,54.25
2018-10-11T13:57:28.386Z,53.80
2018-10-11T13:59:57.356Z,52.89
2018-10-11T14:02:29.195Z,54.51
2018-10-11T14:05:00.707Z,53.62
2018-10-11T14:07:32.565Z,52.75
2018-10-11T14:10:04.376Z,53.47
2018-10-11T14:12:36.434Z,54.01
2018-10-11T14:15:09.199Z,52.80
2018-10-11T14:17:41.086Z,53.28
2018-10-11T14:20:12.782Z,53.41
2018-10-11T14:22:44.921Z,54.36
2018-10-11T14:25:16.923Z,53.78
2018-10-11T14:27:48.724Z,54.00
2018-10-11T14:30:20.669Z,54.31
2018-10-11T14:32:52.523Z,54.08
2018-10-11T14:35:24.376Z,54.22
2018-10-11T14:37:56.003Z,54.19
2018-10-11T14:40:27.939Z,54.35
2018-10-11T14:42:59.954Z,53.75
2018-10-11T14:45:31.580Z,53.60
2018-10-11T14:48:03.406Z,53.37
2018-10-11T14:50:35.750Z,54.01
2018-10-11T14:53:07.653Z,54.24
2018-10-11T14:55:39.390Z,53.22
2018-10-11T14:58:11.085Z,53.44
2018-10-11T15:00:42.642Z,53.38
2018-10-11T15:03:14.473Z,53.27
2018-10-11T15:05:46.143Z,53.13
2018-10-11T15:08:18.067Z,52.36
2018-10-11T15:10:49.767Z,52.55
2018-10-11T15:13:21.901Z,53.00
2018-10-11T15:15:53.974Z,53.25
2018-10-11T15:18:25.752Z,52.42
2018-10-11T15:20:57.677Z,53.24
2018-10-11T15:23:29.421Z,53.00
2018-10-11T15:26:01.112Z,52.22
2018-10-11T15:28:33.018Z,52.55
2018-10-11T15:31:04.280Z,52.11
2018-10-11T15:33:36.192Z,52.28
2018-10-11T15:36:07.962Z,53.43
2018-10-11T15:38:39.848Z,52.57
2018-10-11T15:41:11.535Z,53.26
2018-10-11T15:43:43.287Z,53.61
2018-10-11T15:46:15.259Z,52.68
2018-10-11T15:48:47.053Z,52.77
2018-10-11T15:51:18.890Z,52.92
2018-10-11T15:53:50.865Z,53.20
2018-10-11T15:56:22.724Z,52.64
2018-10-11T15:58:54.748Z,52.83
2018-10-11T16:01:26.357Z,53.36
2018-10-11T16:03:58.389Z,53.11
2018-10-11T16:06:30.158Z,53.46
2018-10-11T16:09:01.880Z,53.81
2018-10-11T16:11:33.789Z,53.03
2018-10-11T16:14:05.659Z,53.04
2018-10-11T16:16:37.516Z,52.40
2018-10-11T16:19:09.453Z,52.41
2018-10-11T16:21:40.888Z,52.16
2018-10-11T16:24:12.679Z,52.40
2018-10-11T16:26:44.186Z,53.04
2018-10-11T16:29:16.156Z,52.57
2018-10-11T16:31:49.389Z,52.72
2018-10-11T16:34:21.302Z,52.32
2018-10-11T16:37:36.955Z,52.74
2018-10-11T16:40:09.002Z,52.64
2018-10-11T16:42:41.425Z,52.76
2018-10-11T16:45:13.111Z,53.20
2018-10-11T16:47:45.011Z,53.52
2018-10-11T16:50:17.181Z,53.36
2018-10-11T16:52:49.348Z,52.65
2018-10-11T16:55:21.640Z,53.39
2018-10-11T16:59:17.272Z,52.56
2018-10-11T17:01:49.029Z,52.76
2018-10-11T17:04:20.756Z,52.19
2018-10-11T17:06:53.248Z,52.22
2018-10-11T17:09:25.665Z,52.02
2018-10-11T17:11:57.357Z,51.42
2018-10-11T17:14:29.207Z,51.38
2018-10-11T17:17:02.150Z,51.14
2018-10-11T17:19:34.335Z,49.99
2018-10-11T17:22:06.256Z,49.97
2018-10-11T17:24:38.524Z,49.04
2018-10-11T17:27:10.500Z,49.19
2018-10-11T17:29:42.702Z,49.93
2018-10-11T17:32:14.924Z,49.21
2018-10-11T17:34:46.544Z,49.19
2018-10-11T17:37:18.521Z,47.66
2018-10-11T17:39:50.805Z,48.37
2018-10-11T17:42:22.530Z,48.75
2018-10-11T17:44:54.266Z,50.12
2018-10-11T17:47:26.529Z,49.24
2018-10-11T17:49:58.265Z,49.51
2018-10-11T17:52:30.287Z,49.49
2018-10-11T17:55:02.687Z,49.53
2018-10-11T17:57:34.784Z,48.91
2018-10-11T18:00:07.387Z,48.57
2018-10-11T18:02:39.701Z,48.53
2018-10-11T18:05:11.330Z,49.50
2018-10-11T18:07:43.417Z,49.43
2018-10-11T18:10:15.116Z,49.15
2018-10-11T18:12:47.271Z,48.36
2018-10-11T18:15:18.899Z,48.30
2018-10-11T18:17:50.813Z,48.68
2018-10-11T18:20:22.758Z,47.71
2018-10-11T18:22:55.336Z,48.25
2018-10-11T18:25:27.170Z,48.39
2018-10-11T18:27:59.111Z,48.69
2018-10-11T18:30:30.666Z,48.44
2018-10-11T18:33:02.425Z,45.24
2018-10-11T18:35:35.001Z,45.58
2018-10-11T18:38:07.121Z,46.64
2018-10-11T18:40:39.126Z,47.96
2018-10-11T18:43:11.707Z,48.08
2018-10-11T18:45:43.423Z,46.87
2018-10-11T18:48:15.757Z,48.09
2018-10-11T18:50:47.534Z,46.66
2018-10-11T18:53:19.089Z,42.56
2018-10-11T18:55:51.583Z,44.03
2018-10-11T18:58:23.459Z,46.72
2018-10-11T19:00:55.531Z,46.50
2018-10-11T19:03:27.602Z,45.86
2018-10-11T19:05:59.623Z,45.75
2018-10-11T19:08:31.609Z,46.60
2018-10-11T19:11:03.418Z,47.87
2018-10-11T19:13:35.753Z,46.55
2018-10-11T19:16:07.695Z,46.38
2018-10-11T19:18:40.742Z,47.23
2018-10-11T19:21:12.595Z,47.64
2018-10-11T19:23:45.267Z,47.38
2018-10-11T19:26:17.068Z,49.06
2018-10-11T19:28:50.022Z,47.13
2018-10-11T19:31:22.901Z,46.54
2018-10-11T19:33:55.432Z,45.68
2018-10-11T19:36:28.085Z,46.16
2018-10-11T19:39:00.156Z,46.09
2018-10-11T19:41:31.868Z,47.21
2018-10-11T19:44:03.598Z,48.69
2018-10-11T19:46:35.434Z,48.60
2018-10-11T19:49:07.863Z,49.14
2018-10-11T19:51:39.829Z,47.97
2018-10-11T19:54:12.241Z,47.51
2018-10-11T19:56:44.426Z,48.59
2018-10-11T19:59:16.218Z,48.08
2018-10-11T20:01:48.193Z,47.20
2018-10-11T20:04:20.078Z,47.11
2018-10-11T20:06:51.847Z,48.39
2018-10-11T20:09:24.004Z,46.57
2018-10-11T20:11:57.155Z,46.88
2018-10-11T20:14:29.356Z,46.34
2018-10-11T20:17:01.701Z,46.34
2018-10-11T20:19:33.573Z,46.34
2018-10-11T20:22:06.155Z,46.34
2018-10-11T20:24:38.200Z,47.19
2018-10-11T20:27:10.908Z,47.61
2018-10-11T20:29:42.921Z,47.89
2018-10-11T20:32:15.673Z,47.31
2018-10-11T20:34:47.631Z,46.73
2018-10-11T20:37:19.485Z,46.25
2018-10-11T20:39:51.297Z,46.36
2018-10-11T20:42:23.418Z,45.85
2018-10-11T20:44:55.551Z,46.11
2018-10-11T20:47:27.343Z,45.81
2018-10-11T20:49:59.221Z,47.06
2018-10-11T20:52:30.870Z,46.99
2018-10-11T20:55:02.747Z,48.66
2018-10-11T20:57:34.511Z,47.81
2018-10-11T21:00:06.270Z,48.31
2018-10-11T21:02:37.963Z,47.67
2018-10-11T21:05:10.043Z,48.31
2018-10-11T21:07:42.131Z,47.62
2018-10-11T21:10:14.002Z,48.14
2018-10-11T21:12:45.863Z,48.79
2018-10-11T21:15:18.224Z,49.04
2018-10-11T21:17:50.209Z,48.83
2018-10-11T21:20:22.359Z,48.92
2018-10-11T21:22:54.522Z,48.39
2018-10-11T21:25:26.415Z,47.98
2018-10-11T21:27:58.194Z,48.13
2018-10-11T21:30:30.444Z,47.55
2018-10-11T21:33:02.502Z,49.63
2018-10-11T21:35:34.404Z,49.75
2018-10-11T21:38:06.206Z,49.46
2018-10-11T21:40:38.056Z,48.97
2018-10-11T21:43:09.526Z,49.53
2018-10-11T21:45:41.439Z,48.90
2018-10-11T21:48:13.417Z,49.23
2018-10-11T21:50:45.110Z,48.53
2018-10-11T21:53:16.997Z,47.94
2018-10-11T21:55:48.910Z,48.23
2018-10-11T21:58:20.481Z,48.65
2018-10-11T22:00:57.087Z,48.80
2018-10-11T22:03:29.004Z,48.94
2018-10-11T22:06:01.032Z,48.37
2018-10-11T22:08:32.983Z,48.62
2018-10-11T22:11:04.915Z,47.51
2018-10-11T22:13:37.095Z,48.23
2018-10-11T22:16:10.073Z,49.77
2018-10-11T22:18:42.515Z,50.36
2018-10-11T22:21:14.449Z,50.61
2018-10-11T22:23:46.392Z,50.04
2018-10-11T22:26:18.661Z,50.66
2018-10-11T22:28:50.307Z,50.35
2018-10-11T22:31:22.446Z,51.29
2018-10-11T22:33:54.403Z,49.94
2018-10-11T22:36:26.593Z,49.27
2018-10-11T22:38:58.676Z,49.50
2018-10-11T22:41:30.644Z,50.98
2018-10-11T22:44:02.407Z,49.82
2018-10-11T22:46:34.482Z,48.93
2018-10-11T22:49:07.241Z,50.13
2018-10-11T22:51:39.391Z,50.22
2018-10-11T22:54:12.022Z,49.52
2018-10-11T22:56:59.618Z,49.52
2018-10-11T22:59:31.322Z,51.24
2018-10-11T23:02:03.063Z,51.24
2018-10-11T23:04:35.134Z,51.24
2018-10-11T23:07:07.093Z,51.51
2018-10-11T23:10:19.442Z,51.51
2018-10-11T23:12:51.609Z,52.06
2018-10-11T23:15:23.374Z,51.62
2018-10-11T23:17:55.327Z,51.24
2018-10-11T23:20:27.522Z,51.27
2018-10-11T23:22:59.699Z,51.79
2018-10-11T23:25:31.944Z,51.72
2018-10-11T23:28:03.789Z,50.94
2018-10-11T23:30:35.951Z,50.12
2018-10-11T23:33:07.928Z,51.07
2018-10-11T23:35:39.752Z,50.28
2018-10-11T23:38:11.834Z,50.25
2018-10-11T23:40:43.966Z,51.72
2018-10-11T23:43:15.774Z,50.77
2018-10-11T23:45:47.653Z,51.04
2018-10-11T23:48:20.613Z,51.04
2018-10-11T23:50:53.112Z,50.90
2018-10-11T23:53:25.070Z,51.34
2018-10-11T23:55:56.943Z,50.35
2018-10-11T23:58:29.009Z,50.79
